sensor_id;sensor_type;location;lat;lon;timestamp;temperature;humidity
53254;DHT22;39148;53.332;6.922;2023-09-19T00:01:12;20.30;83.50
53254;DHT22;39148;53.332;6.922;2023-09-19T00:03:39;20.20;83.50
53254;DHT22;39148;53.332;6.922;2023-09-19T00:06:07;20.30;83.50
53254;DHT22;39148;53.332;6.922;2023-09-19T00:08:36;20.30;83.50
53254;DHT22;39148;53.332;6.922;2023-09-19T00:11:02;20.40;83.60
53254;DHT22;39148;53.332;6.922;2023-09-19T00:13:29;20.20;83.40
53254;DHT22;39148;53.332;6.922;2023-09-19T00:15:56;20.20;83.40
53254;DHT22;39148;53.332;6.922;2023-09-19T00:18:25;20.20;83.40
53254;DHT22;39148;53.332;6.922;2023-09-19T00:21:00;20.20;83.50
53254;DHT22;39148;53.332;6.922;2023-09-19T00:23:26;20.20;82.40
53254;DHT22;39148;53.332;6.922;2023-09-19T00:25:52;20.10;83.40
53254;DHT22;39148;53.332;6.922;2023-09-19T00:28:21;20.10;83.40
53254;DHT22;39148;53.332;6.922;2023-09-19T00:30:46;20.20;83.40
53254;DHT22;39148;53.332;6.922;2023-09-19T00:33:20;20.10;82.40
53254;DHT22;39148;53.332;6.922;2023-09-19T00:35:50;20.10;83.40
53254;DHT22;39148;53.332;6.922;2023-09-19T00:38:16;20.10;83.60
53254;DHT22;39148;53.332;6.922;2023-09-19T00:40:44;20.20;83.50
53254;DHT22;39148;53.332;6.922;2023-09-19T00:43:10;20.10;83.50
53254;DHT22;39148;53.332;6.922;2023-09-19T00:45:37;19.90;83.30
53254;DHT22;39148;53.332;6.922;2023-09-19T00:48:08;20.00;83.50
53254;DHT22;39148;53.332;6.922;2023-09-19T00:50:35;20.10;83.40
53254;DHT22;39148;53.332;6.922;2023-09-19T00:53:01;20.00;83.40
53254;DHT22;39148;53.332;6.922;2023-09-19T00:55:29;20.00;83.40
53254;DHT22;39148;53.332;6.922;2023-09-19T00:57:56;19.90;83.40
53254;DHT22;39148;53.332;6.922;2023-09-19T01:00:22;20.00;83.40
53254;DHT22;39148;53.332;6.922;2023-09-19T01:02:49;19.90;83.30
53254;DHT22;39148;53.332;6.922;2023-09-19T01:05:14;19.90;83.20
53254;DHT22;39148;53.332;6.922;2023-09-19T01:07:41;19.90;83.30
53254;DHT22;39148;53.332;6.922;2023-09-19T01:10:12;19.90;83.30
53254;DHT22;39148;53.332;6.922;2023-09-19T01:17:51;19.80;83.40
53254;DHT22;39148;53.332;6.922;2023-09-19T01:20:27;19.90;83.50
53254;DHT22;39148;53.332;6.922;2023-09-19T01:23:17;19.80;83.50
53254;DHT22;39148;53.332;6.922;2023-09-19T01:26:53;19.80;83.70
53254;DHT22;39148;53.332;6.922;2023-09-19T01:31:23;19.80;82.30
53254;DHT22;39148;53.332;6.922;2023-09-19T01:33:58;19.70;83.40
53254;DHT22;39148;53.332;6.922;2023-09-19T01:36:31;19.70;83.50
53254;DHT22;39148;53.332;6.922;2023-09-19T01:39:05;19.70;83.40
53254;DHT22;39148;53.332;6.922;2023-09-19T01:41:57;19.70;83.30
53254;DHT22;39148;53.332;6.922;2023-09-19T01:44:36;19.70;82.40
53254;DHT22;39148;53.332;6.922;2023-09-19T01:47:14;19.60;83.40
53254;DHT22;39148;53.332;6.922;2023-09-19T01:49:48;19.70;83.40
53254;DHT22;39148;53.332;6.922;2023-09-19T01:52:18;19.60;83.20
53254;DHT22;39148;53.332;6.922;2023-09-19T01:54:52;19.60;83.10
53254;DHT22;39148;53.332;6.922;2023-09-19T01:57:30;19.60;83.30
53254;DHT22;39148;53.332;6.922;2023-09-19T02:00:10;19.60;83.40
53254;DHT22;39148;53.332;6.922;2023-09-19T02:02:43;19.60;83.00
53254;DHT22;39148;53.332;6.922;2023-09-19T02:05:10;19.60;83.40
53254;DHT22;39148;53.332;6.922;2023-09-19T02:07:38;19.50;83.00
53254;DHT22;39148;53.332;6.922;2023-09-19T02:10:05;19.40;82.90
53254;DHT22;39148;53.332;6.922;2023-09-19T02:12:32;19.50;82.80
53254;DHT22;39148;53.332;6.922;2023-09-19T02:15:01;19.50;83.00
53254;DHT22;39148;53.332;6.922;2023-09-19T02:17:26;19.50;83.00
53254;DHT22;39148;53.332;6.922;2023-09-19T02:19:55;19.40;82.90
53254;DHT22;39148;53.332;6.922;2023-09-19T02:22:22;19.40;83.00
53254;DHT22;39148;53.332;6.922;2023-09-19T02:24:48;19.40;83.00
53254;DHT22;39148;53.332;6.922;2023-09-19T02:27:14;19.40;82.90
53254;DHT22;39148;53.332;6.922;2023-09-19T02:29:42;19.40;82.90
53254;DHT22;39148;53.332;6.922;2023-09-19T02:32:08;19.40;82.90
53254;DHT22;39148;53.332;6.922;2023-09-19T02:34:35;19.40;82.90
53254;DHT22;39148;53.332;6.922;2023-09-19T02:37:03;19.20;82.80
53254;DHT22;39148;53.332;6.922;2023-09-19T02:39:34;19.30;83.10
53254;DHT22;39148;53.332;6.922;2023-09-19T02:41:59;19.30;81.70
53254;DHT22;39148;53.332;6.922;2023-09-19T02:44:25;19.30;83.20
53254;DHT22;39148;53.332;6.922;2023-09-19T02:46:51;19.30;82.70
53254;DHT22;39148;53.332;6.922;2023-09-19T02:49:17;19.10;83.00
53254;DHT22;39148;53.332;6.922;2023-09-19T02:51:45;19.00;82.60
53254;DHT22;39148;53.332;6.922;2023-09-19T02:54:13;19.20;82.70
53254;DHT22;39148;53.332;6.922;2023-09-19T02:56:39;19.10;82.70
53254;DHT22;39148;53.332;6.922;2023-09-19T02:59:05;19.20;82.60
53254;DHT22;39148;53.332;6.922;2023-09-19T03:01:31;19.20;82.70
53254;DHT22;39148;53.332;6.922;2023-09-19T03:03:57;19.10;82.70
53254;DHT22;39148;53.332;6.922;2023-09-19T03:06:23;19.10;82.60
53254;DHT22;39148;53.332;6.922;2023-09-19T03:08:49;19.10;82.60
53254;DHT22;39148;53.332;6.922;2023-09-19T03:11:16;19.10;82.70
53254;DHT22;39148;53.332;6.922;2023-09-19T03:13:44;19.10;82.70
53254;DHT22;39148;53.332;6.922;2023-09-19T03:16:11;19.10;82.70
53254;DHT22;39148;53.332;6.922;2023-09-19T03:18:37;19.00;82.60
53254;DHT22;39148;53.332;6.922;2023-09-19T03:21:03;19.00;82.60
53254;DHT22;39148;53.332;6.922;2023-09-19T03:23:29;19.00;82.60
53254;DHT22;39148;53.332;6.922;2023-09-19T03:25:55;18.90;82.60
53254;DHT22;39148;53.332;6.922;2023-09-19T03:28:22;18.90;82.60
53254;DHT22;39148;53.332;6.922;2023-09-19T03:31:01;18.90;84.30
53254;DHT22;39148;53.332;6.922;2023-09-19T03:33:27;18.90;82.90
53254;DHT22;39148;53.332;6.922;2023-09-19T03:35:53;18.90;82.50
53254;DHT22;39148;53.332;6.922;2023-09-19T03:38:20;18.90;82.50
53254;DHT22;39148;53.332;6.922;2023-09-19T03:40:47;18.80;82.50
53254;DHT22;39148;53.332;6.922;2023-09-19T03:43:13;18.80;82.60
53254;DHT22;39148;53.332;6.922;2023-09-19T03:45:39;18.90;82.60
53254;DHT22;39148;53.332;6.922;2023-09-19T03:48:11;18.90;82.70
53254;DHT22;39148;53.332;6.922;2023-09-19T03:50:38;18.80;82.90
53254;DHT22;39148;53.332;6.922;2023-09-19T03:53:03;19.00;82.70
53254;DHT22;39148;53.332;6.922;2023-09-19T03:55:29;18.80;82.50
53254;DHT22;39148;53.332;6.922;2023-09-19T03:57:56;18.80;82.60
53254;DHT22;39148;53.332;6.922;2023-09-19T04:00:22;18.70;82.60
53254;DHT22;39148;53.332;6.922;2023-09-19T04:02:51;18.80;82.70
53254;DHT22;39148;53.332;6.922;2023-09-19T04:05:17;18.70;82.70
53254;DHT22;39148;53.332;6.922;2023-09-19T04:07:43;18.70;82.50
53254;DHT22;39148;53.332;6.922;2023-09-19T04:10:09;18.60;82.40
53254;DHT22;39148;53.332;6.922;2023-09-19T04:12:37;18.70;82.60
53254;DHT22;39148;53.332;6.922;2023-09-19T04:15:05;18.70;82.70
53254;DHT22;39148;53.332;6.922;2023-09-19T04:17:31;18.60;84.60
53254;DHT22;39148;53.332;6.922;2023-09-19T04:20:00;18.60;81.90
53254;DHT22;39148;53.332;6.922;2023-09-19T04:22:25;18.50;84.50
53254;DHT22;39148;53.332;6.922;2023-09-19T04:24:51;18.60;82.80
53254;DHT22;39148;53.332;6.922;2023-09-19T04:27:17;18.60;82.80
53254;DHT22;39148;53.332;6.922;2023-09-19T04:29:44;18.60;82.90
53254;DHT22;39148;53.332;6.922;2023-09-19T04:32:10;18.60;82.90
53254;DHT22;39148;53.332;6.922;2023-09-19T04:34:36;18.50;82.90
53254;DHT22;39148;53.332;6.922;2023-09-19T04:37:03;18.50;82.90
53254;DHT22;39148;53.332;6.922;2023-09-19T04:39:29;18.50;82.80
53254;DHT22;39148;53.332;6.922;2023-09-19T04:41:55;18.50;82.90
53254;DHT22;39148;53.332;6.922;2023-09-19T04:44:22;18.50;85.00
53254;DHT22;39148;53.332;6.922;2023-09-19T04:46:48;18.40;82.90
53254;DHT22;39148;53.332;6.922;2023-09-19T04:49:13;18.50;83.00
53254;DHT22;39148;53.332;6.922;2023-09-19T04:51:39;18.50;83.10
53254;DHT22;39148;53.332;6.922;2023-09-19T04:54:06;18.60;83.20
53254;DHT22;39148;53.332;6.922;2023-09-19T04:56:32;18.50;85.10
53254;DHT22;39148;53.332;6.922;2023-09-19T04:58:59;18.30;83.10
53254;DHT22;39148;53.332;6.922;2023-09-19T05:01:26;18.40;83.20
53254;DHT22;39148;53.332;6.922;2023-09-19T05:03:52;18.40;85.30
53254;DHT22;39148;53.332;6.922;2023-09-19T05:06:21;18.30;83.20
53254;DHT22;39148;53.332;6.922;2023-09-19T05:08:50;18.30;83.30
53254;DHT22;39148;53.332;6.922;2023-09-19T05:11:19;18.30;83.30
53254;DHT22;39148;53.332;6.922;2023-09-19T05:13:47;18.40;85.00
53254;DHT22;39148;53.332;6.922;2023-09-19T05:16:13;18.30;85.00
53254;DHT22;39148;53.332;6.922;2023-09-19T05:18:38;18.20;83.10
53254;DHT22;39148;53.332;6.922;2023-09-19T05:21:05;18.30;85.00
53254;DHT22;39148;53.332;6.922;2023-09-19T05:23:31;18.40;85.10
53254;DHT22;39148;53.332;6.922;2023-09-19T05:25:57;18.30;83.20
53254;DHT22;39148;53.332;6.922;2023-09-19T05:28:25;18.20;83.20
53254;DHT22;39148;53.332;6.922;2023-09-19T05:30:52;18.40;85.40
53254;DHT22;39148;53.332;6.922;2023-09-19T05:33:19;18.20;85.10
53254;DHT22;39148;53.332;6.922;2023-09-19T05:35:45;18.30;85.10
53254;DHT22;39148;53.332;6.922;2023-09-19T05:38:13;18.10;85.40
53254;DHT22;39148;53.332;6.922;2023-09-19T05:40:40;18.20;83.40
53254;DHT22;39148;53.332;6.922;2023-09-19T05:43:09;18.10;85.20
53254;DHT22;39148;53.332;6.922;2023-09-19T05:45:35;18.20;85.30
53254;DHT22;39148;53.332;6.922;2023-09-19T05:48:09;18.10;83.30
53254;DHT22;39148;53.332;6.922;2023-09-19T05:50:37;18.00;85.00
53254;DHT22;39148;53.332;6.922;2023-09-19T05:53:03;18.10;83.50
53254;DHT22;39148;53.332;6.922;2023-09-19T05:55:30;18.20;85.40
53254;DHT22;39148;53.332;6.922;2023-09-19T05:57:55;18.10;83.70
53254;DHT22;39148;53.332;6.922;2023-09-19T06:00:24;18.00;85.20
53254;DHT22;39148;53.332;6.922;2023-09-19T06:02:57;18.10;85.30
53254;DHT22;39148;53.332;6.922;2023-09-19T06:05:25;18.10;84.50
53254;DHT22;39148;53.332;6.922;2023-09-19T06:07:52;18.10;85.30
53254;DHT22;39148;53.332;6.922;2023-09-19T06:10:18;18.00;84.00
53254;DHT22;39148;53.332;6.922;2023-09-19T06:12:46;18.10;83.60
53254;DHT22;39148;53.332;6.922;2023-09-19T06:15:13;18.10;85.40
53254;DHT22;39148;53.332;6.922;2023-09-19T06:17:48;18.00;85.40
53254;DHT22;39148;53.332;6.922;2023-09-19T06:20:14;18.10;83.90
53254;DHT22;39148;53.332;6.922;2023-09-19T06:22:45;18.10;83.60
53254;DHT22;39148;53.332;6.922;2023-09-19T06:25:11;18.00;83.90
53254;DHT22;39148;53.332;6.922;2023-09-19T06:27:40;18.00;84.00
53254;DHT22;39148;53.332;6.922;2023-09-19T06:30:10;18.00;82.80
53254;DHT22;39148;53.332;6.922;2023-09-19T06:32:42;18.00;83.70
53254;DHT22;39148;53.332;6.922;2023-09-19T06:35:12;17.90;85.70
53254;DHT22;39148;53.332;6.922;2023-09-19T06:37:39;18.00;83.90
53254;DHT22;39148;53.332;6.922;2023-09-19T06:40:12;18.00;83.90
53254;DHT22;39148;53.332;6.922;2023-09-19T06:42:47;17.90;85.80
53254;DHT22;39148;53.332;6.922;2023-09-19T06:45:13;17.90;83.90
53254;DHT22;39148;53.332;6.922;2023-09-19T06:47:47;17.90;85.60
53254;DHT22;39148;53.332;6.922;2023-09-19T06:50:20;17.80;83.90
53254;DHT22;39148;53.332;6.922;2023-09-19T06:52:49;18.00;84.10
53254;DHT22;39148;53.332;6.922;2023-09-19T06:55:19;17.80;83.90
53254;DHT22;39148;53.332;6.922;2023-09-19T06:57:46;17.90;85.60
53254;DHT22;39148;53.332;6.922;2023-09-19T07:00:13;17.80;85.50
53254;DHT22;39148;53.332;6.922;2023-09-19T07:05:27;17.80;82.90
53254;DHT22;39148;53.332;6.922;2023-09-19T07:07:53;17.90;84.00
53254;DHT22;39148;53.332;6.922;2023-09-19T07:10:22;17.90;83.70
53254;DHT22;39148;53.332;6.922;2023-09-19T07:15:29;17.90;83.00
53254;DHT22;39148;53.332;6.922;2023-09-19T07:17:56;17.90;85.60
53254;DHT22;39148;53.332;6.922;2023-09-19T07:20:23;17.70;85.60
53254;DHT22;39148;53.332;6.922;2023-09-19T07:22:52;17.90;84.70
53254;DHT22;39148;53.332;6.922;2023-09-19T07:25:20;17.70;83.90
53254;DHT22;39148;53.332;6.922;2023-09-19T07:27:46;17.80;85.70
53254;DHT22;39148;53.332;6.922;2023-09-19T07:30:12;17.80;86.00
53254;DHT22;39148;53.332;6.922;2023-09-19T07:32:38;17.80;85.90
53254;DHT22;39148;53.332;6.922;2023-09-19T07:35:06;17.90;85.80
53254;DHT22;39148;53.332;6.922;2023-09-19T07:37:32;17.80;85.80
53254;DHT22;39148;53.332;6.922;2023-09-19T07:39:59;17.80;84.00
53254;DHT22;39148;53.332;6.922;2023-09-19T07:42:26;17.70;85.70
53254;DHT22;39148;53.332;6.922;2023-09-19T07:44:52;17.70;84.00
53254;DHT22;39148;53.332;6.922;2023-09-19T07:47:22;17.60;85.70
53254;DHT22;39148;53.332;6.922;2023-09-19T07:49:47;17.90;85.80
53254;DHT22;39148;53.332;6.922;2023-09-19T07:52:13;17.90;85.80
53254;DHT22;39148;53.332;6.922;2023-09-19T07:54:39;17.60;85.70
53254;DHT22;39148;53.332;6.922;2023-09-19T07:57:07;17.80;85.80
53254;DHT22;39148;53.332;6.922;2023-09-19T07:59:32;17.70;85.80
53254;DHT22;39148;53.332;6.922;2023-09-19T08:01:58;17.60;85.70
53254;DHT22;39148;53.332;6.922;2023-09-19T08:04:24;17.70;85.80
53254;DHT22;39148;53.332;6.922;2023-09-19T08:06:51;17.70;84.10
53254;DHT22;39148;53.332;6.922;2023-09-19T08:09:17;17.70;85.90
53254;DHT22;39148;53.332;6.922;2023-09-19T08:11:47;17.80;86.00
53254;DHT22;39148;53.332;6.922;2023-09-19T08:14:13;17.80;85.20
53254;DHT22;39148;53.332;6.922;2023-09-19T08:16:40;17.70;85.90
53254;DHT22;39148;53.332;6.922;2023-09-19T08:19:05;17.80;86.00
53254;DHT22;39148;53.332;6.922;2023-09-19T08:21:31;17.60;85.80
53254;DHT22;39148;53.332;6.922;2023-09-19T08:23:57;17.70;85.80
53254;DHT22;39148;53.332;6.922;2023-09-19T08:26:23;17.70;84.10
53254;DHT22;39148;53.332;6.922;2023-09-19T08:28:50;17.70;85.90
53254;DHT22;39148;53.332;6.922;2023-09-19T08:31:17;17.80;85.90
53254;DHT22;39148;53.332;6.922;2023-09-19T08:33:43;17.70;83.10
53254;DHT22;39148;53.332;6.922;2023-09-19T08:36:15;17.80;85.90
53254;DHT22;39148;53.332;6.922;2023-09-19T08:38:41;17.80;84.60
53254;DHT22;39148;53.332;6.922;2023-09-19T08:41:08;17.80;84.00
53254;DHT22;39148;53.332;6.922;2023-09-19T08:43:35;17.80;86.00
53254;DHT22;39148;53.332;6.922;2023-09-19T08:46:11;17.80;86.20
53254;DHT22;39148;53.332;6.922;2023-09-19T08:49:05;17.80;86.00
53254;DHT22;39148;53.332;6.922;2023-09-19T08:51:43;17.70;84.50
53254;DHT22;39148;53.332;6.922;2023-09-19T08:54:21;17.70;86.00
53254;DHT22;39148;53.332;6.922;2023-09-19T08:56:48;17.80;84.50
53254;DHT22;39148;53.332;6.922;2023-09-19T08:59:15;17.70;86.00
53254;DHT22;39148;53.332;6.922;2023-09-19T09:01:42;17.70;86.00
53254;DHT22;39148;53.332;6.922;2023-09-19T09:04:09;17.80;86.10
53254;DHT22;39148;53.332;6.922;2023-09-19T09:06:38;17.70;85.90
53254;DHT22;39148;53.332;6.922;2023-09-19T09:09:06;17.70;84.30
53254;DHT22;39148;53.332;6.922;2023-09-19T09:11:36;17.60;85.90
53254;DHT22;39148;53.332;6.922;2023-09-19T09:14:06;17.70;84.30
53254;DHT22;39148;53.332;6.922;2023-09-19T09:16:32;17.80;84.40
53254;DHT22;39148;53.332;6.922;2023-09-19T09:18:59;17.70;85.90
53254;DHT22;39148;53.332;6.922;2023-09-19T09:21:25;17.80;84.30
53254;DHT22;39148;53.332;6.922;2023-09-19T09:23:51;17.80;86.20
53254;DHT22;39148;53.332;6.922;2023-09-19T09:26:41;17.90;86.00
53254;DHT22;39148;53.332;6.922;2023-09-19T09:29:07;17.70;83.50
53254;DHT22;39148;53.332;6.922;2023-09-19T09:31:32;17.80;84.10
53254;DHT22;39148;53.332;6.922;2023-09-19T09:33:58;17.80;85.90
53254;DHT22;39148;53.332;6.922;2023-09-19T09:36:34;17.70;85.90
53254;DHT22;39148;53.332;6.922;2023-09-19T09:39:02;17.80;84.60
53254;DHT22;39148;53.332;6.922;2023-09-19T09:41:42;17.80;85.90
53254;DHT22;39148;53.332;6.922;2023-09-19T09:44:16;17.70;85.80
53254;DHT22;39148;53.332;6.922;2023-09-19T09:46:48;17.80;84.50
53254;DHT22;39148;53.332;6.922;2023-09-19T09:49:24;17.80;86.00
53254;DHT22;39148;53.332;6.922;2023-09-19T09:52:03;17.80;84.40
53254;DHT22;39148;53.332;6.922;2023-09-19T09:54:59;17.80;85.80
53254;DHT22;39148;53.332;6.922;2023-09-19T09:57:26;17.80;86.00
53254;DHT22;39148;53.332;6.922;2023-09-19T09:59:53;17.80;86.30
53254;DHT22;39148;53.332;6.922;2023-09-19T10:02:31;17.80;85.90
53254;DHT22;39148;53.332;6.922;2023-09-19T10:05:13;17.80;86.30
53254;DHT22;39148;53.332;6.922;2023-09-19T10:07:46;17.90;86.00
53254;DHT22;39148;53.332;6.922;2023-09-19T10:13:06;17.80;84.40
53254;DHT22;39148;53.332;6.922;2023-09-19T10:15:38;17.90;86.00
53254;DHT22;39148;53.332;6.922;2023-09-19T10:18:07;17.90;84.20
53254;DHT22;39148;53.332;6.922;2023-09-19T10:20:36;18.00;85.80
53254;DHT22;39148;53.332;6.922;2023-09-19T10:23:09;17.90;84.20
53254;DHT22;39148;53.332;6.922;2023-09-19T10:25:40;17.90;84.30
53254;DHT22;39148;53.332;6.922;2023-09-19T10:28:08;17.90;85.80
53254;DHT22;39148;53.332;6.922;2023-09-19T10:30:38;18.00;85.80
53254;DHT22;39148;53.332;6.922;2023-09-19T10:33:09;18.00;84.20
53254;DHT22;39148;53.332;6.922;2023-09-19T10:35:39;18.10;85.90
53254;DHT22;39148;53.332;6.922;2023-09-19T10:38:13;18.10;86.00
53254;DHT22;39148;53.332;6.922;2023-09-19T10:40:40;18.00;84.30
53254;DHT22;39148;53.332;6.922;2023-09-19T10:43:17;18.00;85.70
53254;DHT22;39148;53.332;6.922;2023-09-19T10:45:48;18.10;85.90
53254;DHT22;39148;53.332;6.922;2023-09-19T10:48:19;17.90;84.10
53254;DHT22;39148;53.332;6.922;2023-09-19T10:53:26;18.10;83.10
53254;DHT22;39148;53.332;6.922;2023-09-19T10:55:57;18.10;85.60
53254;DHT22;39148;53.332;6.922;2023-09-19T10:58:29;18.00;84.10
53254;DHT22;39148;53.332;6.922;2023-09-19T11:00:59;18.20;84.10
53254;DHT22;39148;53.332;6.922;2023-09-19T11:03:28;18.10;84.60
53254;DHT22;39148;53.332;6.922;2023-09-19T11:06:03;18.10;82.90
53254;DHT22;39148;53.332;6.922;2023-09-19T11:08:50;18.20;85.50
53254;DHT22;39148;53.332;6.922;2023-09-19T11:14:14;18.20;85.50
53254;DHT22;39148;53.332;6.922;2023-09-19T11:30:47;18.20;83.50
53254;DHT22;39148;53.332;6.922;2023-09-19T11:36:03;18.30;83.60
53254;DHT22;39148;53.332;6.922;2023-09-19T11:43:46;18.40;83.70
53254;DHT22;39148;53.332;6.922;2023-09-19T11:46:12;18.40;85.40
53254;DHT22;39148;53.332;6.922;2023-09-19T11:48:42;18.40;83.40
53254;DHT22;39148;53.332;6.922;2023-09-19T11:51:43;18.40;83.40
53254;DHT22;39148;53.332;6.922;2023-09-19T11:54:13;18.40;82.40
53254;DHT22;39148;53.332;6.922;2023-09-19T11:56:49;18.50;83.50
53254;DHT22;39148;53.332;6.922;2023-09-19T11:59:25;18.40;83.40
53254;DHT22;39148;53.332;6.922;2023-09-19T12:02:03;18.50;85.10
53254;DHT22;39148;53.332;6.922;2023-09-19T12:04:43;18.50;82.10
53254;DHT22;39148;53.332;6.922;2023-09-19T12:09:39;18.50;84.90
53254;DHT22;39148;53.332;6.922;2023-09-19T12:12:10;18.50;82.90
53254;DHT22;39148;53.332;6.922;2023-09-19T12:14:38;18.50;83.30
53254;DHT22;39148;53.332;6.922;2023-09-19T12:17:06;18.50;83.10
53254;DHT22;39148;53.332;6.922;2023-09-19T12:19:32;18.50;84.80
53254;DHT22;39148;53.332;6.922;2023-09-19T12:22:02;18.70;85.10
53254;DHT22;39148;53.332;6.922;2023-09-19T12:24:32;18.60;83.20
53254;DHT22;39148;53.332;6.922;2023-09-19T12:27:04;18.60;83.20
53254;DHT22;39148;53.332;6.922;2023-09-19T12:29:43;18.60;83.10
53254;DHT22;39148;53.332;6.922;2023-09-19T12:32:10;18.60;83.20
53254;DHT22;39148;53.332;6.922;2023-09-19T12:34:36;18.60;82.90
53254;DHT22;39148;53.332;6.922;2023-09-19T12:40:09;18.70;81.90
53254;DHT22;39148;53.332;6.922;2023-09-19T12:42:48;18.60;81.80
53254;DHT22;39148;53.332;6.922;2023-09-19T12:45:15;18.70;82.90
53254;DHT22;39148;53.332;6.922;2023-09-19T12:51:19;18.70;82.00
53254;DHT22;39148;53.332;6.922;2023-09-19T12:53:57;18.60;84.50
53254;DHT22;39148;53.332;6.922;2023-09-19T12:56:23;18.70;83.00
53254;DHT22;39148;53.332;6.922;2023-09-19T12:58:54;18.80;84.70
53254;DHT22;39148;53.332;6.922;2023-09-19T13:01:21;18.80;83.00
53254;DHT22;39148;53.332;6.922;2023-09-19T13:04:10;18.70;82.70
53254;DHT22;39148;53.332;6.922;2023-09-19T13:06:37;18.70;81.90
53254;DHT22;39148;53.332;6.922;2023-09-19T13:09:09;18.80;81.90
53254;DHT22;39148;53.332;6.922;2023-09-19T13:11:39;18.80;82.70
53254;DHT22;39148;53.332;6.922;2023-09-19T13:14:16;18.80;82.80
53254;DHT22;39148;53.332;6.922;2023-09-19T13:19:38;18.80;82.90
53254;DHT22;39148;53.332;6.922;2023-09-19T13:22:35;18.90;83.00
53254;DHT22;39148;53.332;6.922;2023-09-19T13:24:51;18.80;82.70
53254;DHT22;39148;53.332;6.922;2023-09-19T13:27:17;18.90;82.60
53254;DHT22;39148;53.332;6.922;2023-09-19T13:29:43;18.90;82.50
53254;DHT22;39148;53.332;6.922;2023-09-19T13:32:09;18.90;82.50
53254;DHT22;39148;53.332;6.922;2023-09-19T13:34:37;18.90;82.60
53254;DHT22;39148;53.332;6.922;2023-09-19T13:37:03;18.90;82.70
53254;DHT22;39148;53.332;6.922;2023-09-19T13:39:30;18.90;82.60
53254;DHT22;39148;53.332;6.922;2023-09-19T13:41:55;18.90;82.60
53254;DHT22;39148;53.332;6.922;2023-09-19T13:44:22;19.00;82.60
53254;DHT22;39148;53.332;6.922;2023-09-19T13:46:48;18.90;82.60
53254;DHT22;39148;53.332;6.922;2023-09-19T13:49:14;19.00;82.60
53254;DHT22;39148;53.332;6.922;2023-09-19T13:51:40;18.90;82.50
53254;DHT22;39148;53.332;6.922;2023-09-19T13:54:09;18.90;82.60
53254;DHT22;39148;53.332;6.922;2023-09-19T13:56:35;18.90;82.50
53254;DHT22;39148;53.332;6.922;2023-09-19T13:59:02;19.00;84.50
53254;DHT22;39148;53.332;6.922;2023-09-19T14:01:27;19.00;84.60
53254;DHT22;39148;53.332;6.922;2023-09-19T14:03:53;18.80;82.50
53254;DHT22;39148;53.332;6.922;2023-09-19T14:06:22;19.00;82.50
53254;DHT22;39148;53.332;6.922;2023-09-19T14:08:48;18.90;82.50
53254;DHT22;39148;53.332;6.922;2023-09-19T14:11:15;18.90;82.60
53254;DHT22;39148;53.332;6.922;2023-09-19T14:13:41;19.00;82.60
53254;DHT22;39148;53.332;6.922;2023-09-19T14:16:12;18.90;82.60
53254;DHT22;39148;53.332;6.922;2023-09-19T14:18:38;18.90;84.40
53254;DHT22;39148;53.332;6.922;2023-09-19T14:21:04;18.90;82.60
53254;DHT22;39148;53.332;6.922;2023-09-19T14:23:35;19.00;84.70
53254;DHT22;39148;53.332;6.922;2023-09-19T14:26:01;19.00;83.00
53254;DHT22;39148;53.332;6.922;2023-09-19T14:28:27;19.00;82.80
53254;DHT22;39148;53.332;6.922;2023-09-19T14:30:54;18.90;82.70
53254;DHT22;39148;53.332;6.922;2023-09-19T14:33:20;18.90;82.70
53254;DHT22;39148;53.332;6.922;2023-09-19T14:35:45;19.00;82.70
53254;DHT22;39148;53.332;6.922;2023-09-19T14:38:11;18.90;82.70
53254;DHT22;39148;53.332;6.922;2023-09-19T14:40:37;19.00;82.60
53254;DHT22;39148;53.332;6.922;2023-09-19T14:43:05;18.90;82.70
53254;DHT22;39148;53.332;6.922;2023-09-19T14:45:30;18.90;82.60
53254;DHT22;39148;53.332;6.922;2023-09-19T14:47:56;19.10;82.80
53254;DHT22;39148;53.332;6.922;2023-09-19T14:50:22;18.90;82.60
53254;DHT22;39148;53.332;6.922;2023-09-19T14:52:48;18.90;82.70
53254;DHT22;39148;53.332;6.922;2023-09-19T14:55:17;19.00;81.90
53254;DHT22;39148;53.332;6.922;2023-09-19T14:57:51;19.10;82.80
53254;DHT22;39148;53.332;6.922;2023-09-19T15:00:18;19.00;82.90
53254;DHT22;39148;53.332;6.922;2023-09-19T15:02:46;19.00;83.20
53254;DHT22;39148;53.332;6.922;2023-09-19T15:05:13;19.00;82.80
53254;DHT22;39148;53.332;6.922;2023-09-19T15:07:41;19.00;82.80
53254;DHT22;39148;53.332;6.922;2023-09-19T15:10:06;19.00;82.70
53254;DHT22;39148;53.332;6.922;2023-09-19T15:12:35;19.00;82.60
53254;DHT22;39148;53.332;6.922;2023-09-19T15:15:04;19.00;84.90
53254;DHT22;39148;53.332;6.922;2023-09-19T15:17:32;19.00;82.80
53254;DHT22;39148;53.332;6.922;2023-09-19T15:19:58;19.00;82.80
53254;DHT22;39148;53.332;6.922;2023-09-19T15:22:23;19.00;82.70
53254;DHT22;39148;53.332;6.922;2023-09-19T15:24:50;19.00;82.80
53254;DHT22;39148;53.332;6.922;2023-09-19T15:27:17;18.90;82.80
53254;DHT22;39148;53.332;6.922;2023-09-19T15:29:45;19.10;83.00
53254;DHT22;39148;53.332;6.922;2023-09-19T15:32:11;19.00;84.70
53254;DHT22;39148;53.332;6.922;2023-09-19T15:34:37;19.00;82.90
53254;DHT22;39148;53.332;6.922;2023-09-19T15:37:03;19.00;82.90
53254;DHT22;39148;53.332;6.922;2023-09-19T15:39:31;19.00;82.70
53254;DHT22;39148;53.332;6.922;2023-09-19T15:42:00;19.00;84.90
53254;DHT22;39148;53.332;6.922;2023-09-19T15:44:25;19.00;83.00
53254;DHT22;39148;53.332;6.922;2023-09-19T15:46:54;19.00;82.10
53254;DHT22;39148;53.332;6.922;2023-09-19T15:49:20;19.10;83.10
53254;DHT22;39148;53.332;6.922;2023-09-19T15:51:46;19.00;83.10
53254;DHT22;39148;53.332;6.922;2023-09-19T15:54:15;19.00;83.10
53254;DHT22;39148;53.332;6.922;2023-09-19T15:56:42;19.10;83.40
53254;DHT22;39148;53.332;6.922;2023-09-19T15:59:08;19.10;83.30
53254;DHT22;39148;53.332;6.922;2023-09-19T16:01:35;19.10;83.30
53254;DHT22;39148;53.332;6.922;2023-09-19T16:04:00;19.00;83.10
53254;DHT22;39148;53.332;6.922;2023-09-19T16:06:28;19.00;83.20
53254;DHT22;39148;53.332;6.922;2023-09-19T16:08:56;19.00;83.40
53254;DHT22;39148;53.332;6.922;2023-09-19T16:11:24;19.00;83.40
53254;DHT22;39148;53.332;6.922;2023-09-19T16:13:51;19.00;83.50
53254;DHT22;39148;53.332;6.922;2023-09-19T16:16:19;18.90;83.40
53254;DHT22;39148;53.332;6.922;2023-09-19T16:18:50;19.10;83.60
53254;DHT22;39148;53.332;6.922;2023-09-19T16:21:17;19.00;83.60
53254;DHT22;39148;53.332;6.922;2023-09-19T16:23:46;19.10;83.50
53254;DHT22;39148;53.332;6.922;2023-09-19T16:26:12;19.00;83.70
53254;DHT22;39148;53.332;6.922;2023-09-19T16:28:39;19.00;83.60
53254;DHT22;39148;53.332;6.922;2023-09-19T16:31:07;19.10;83.70
53254;DHT22;39148;53.332;6.922;2023-09-19T16:33:38;19.10;83.80
53254;DHT22;39148;53.332;6.922;2023-09-19T16:36:11;19.00;83.90